createdAt,value
2017-10-25T00:00:10.177Z,0
2017-10-25T00:00:50.663Z,0
2017-10-25T00:01:31.128Z,0
2017-10-25T00:03:43.878Z,0
2017-10-25T00:04:24.399Z,0
2017-10-25T00:05:04.862Z,0
2017-10-25T00:05:45.344Z,0
2017-10-25T00:06:25.835Z,0
2017-10-25T00:07:06.349Z,0
2017-10-25T00:07:46.821Z,0
2017-10-25T00:08:27.299Z,0
2017-10-25T00:09:07.810Z,0
2017-10-25T00:09:48.275Z,0
2017-10-25T00:10:28.716Z,0
2017-10-25T00:11:09.195Z,0
2017-10-25T00:11:49.627Z,0
2017-10-25T00:12:30.095Z,0
2017-10-25T00:13:10.551Z,0
2017-10-25T00:15:08.274Z,0
2017-10-25T00:15:48.789Z,0
2017-10-25T00:16:29.263Z,0
2017-10-25T00:17:09.710Z,0
2017-10-25T00:17:50.177Z,0
2017-10-25T00:18:30.678Z,0
2017-10-25T00:19:11.121Z,0
2017-10-25T00:19:51.572Z,0
2017-10-25T00:20:32.044Z,0
2017-10-25T00:21:12.499Z,0
2017-10-25T00:21:52.944Z,0
2017-10-25T00:22:33.399Z,0
2017-10-25T00:23:13.843Z,0
2017-10-25T00:23:54.261Z,0
2017-10-25T00:24:34.727Z,0
2017-10-25T00:25:15.155Z,0
2017-10-25T00:25:55.655Z,0
2017-10-25T00:26:36.063Z,0
2017-10-25T00:27:16.627Z,0
2017-10-25T00:27:57.094Z,0
2017-10-25T00:28:37.613Z,0
2017-10-25T00:29:18.011Z,0
2017-10-25T00:29:58.488Z,0
2017-10-25T00:30:38.969Z,0
2017-10-25T00:31:19.455Z,0
2017-10-25T00:31:59.882Z,0
2017-10-25T00:32:40.356Z,0
2017-10-25T00:33:20.800Z,0
2017-10-25T00:34:01.289Z,0
2017-10-25T00:34:41.729Z,0
2017-10-25T00:35:22.185Z,0
2017-10-25T00:36:02.675Z,0
2017-10-25T00:36:43.209Z,0
2017-10-25T00:37:23.665Z,0
2017-10-25T00:38:04.088Z,0
2017-10-25T00:38:44.625Z,0
2017-10-25T00:39:25.084Z,0
2017-10-25T00:40:05.611Z,0
2017-10-25T00:40:46.056Z,0
2017-10-25T00:41:26.520Z,0
2017-10-25T00:42:06.962Z,0
2017-10-25T00:42:47.390Z,0
2017-10-25T00:43:27.880Z,0
2017-10-25T00:44:08.369Z,0
2017-10-25T00:46:41.382Z,0
2017-10-25T00:47:21.884Z,0
2017-10-25T00:48:02.311Z,0
2017-10-25T00:48:42.744Z,0
2017-10-25T00:49:23.234Z,0
2017-10-25T00:50:03.665Z,0
2017-10-25T00:50:44.147Z,0
2017-10-25T00:51:24.642Z,0
2017-10-25T00:52:05.098Z,0
2017-10-25T00:52:45.611Z,0
2017-10-25T00:53:26.061Z,0
2017-10-25T00:54:06.547Z,0
2017-10-25T00:54:46.992Z,0
2017-10-25T00:55:27.432Z,0
2017-10-25T00:56:07.897Z,0
2017-10-25T00:56:48.330Z,0
2017-10-25T00:57:28.734Z,0
2017-10-25T01:00:01.787Z,0
2017-10-25T01:00:42.209Z,0
2017-10-25T01:03:15.203Z,0
2017-10-25T01:03:55.707Z,0
2017-10-25T01:04:36.168Z,0
2017-10-25T01:06:33.824Z,0
2017-10-25T01:07:14.304Z,0
2017-10-25T01:07:54.777Z,0
2017-10-25T01:08:35.266Z,0
2017-10-25T01:09:16.694Z,0
2017-10-25T01:09:57.156Z,0
2017-10-25T01:10:37.651Z,0
2017-10-25T01:11:18.145Z,0
2017-10-25T01:11:58.651Z,0
2017-10-25T01:12:39.091Z,0
2017-10-25T01:13:19.578Z,0
2017-10-25T01:14:00.106Z,0
2017-10-25T01:14:40.576Z,0
2017-10-25T01:15:21.049Z,0
2017-10-25T01:16:01.524Z,0
2017-10-25T01:16:41.978Z,0
2017-10-25T01:17:22.433Z,0
2017-10-25T01:18:02.951Z,0
2017-10-25T01:18:43.397Z,0
2017-10-25T01:21:16.377Z,0
2017-10-25T01:21:56.887Z,0
2017-10-25T01:22:37.356Z,0
2017-10-25T01:23:17.845Z,0
2017-10-25T01:23:58.369Z,0
2017-10-25T01:24:38.840Z,0
2017-10-25T01:25:19.305Z,0
2017-10-25T01:25:59.791Z,0
2017-10-25T01:26:40.259Z,0
2017-10-25T01:29:13.438Z,0
2017-10-25T01:29:53.893Z,0
2017-10-25T01:30:34.345Z,0
2017-10-25T01:31:14.824Z,0
2017-10-25T01:31:55.300Z,0
2017-10-25T01:34:23.282Z,0
2017-10-25T01:35:03.772Z,0
2017-10-25T01:35:44.267Z,0
2017-10-25T01:36:24.758Z,0
2017-10-25T01:37:05.254Z,0
2017-10-25T01:37:45.749Z,0
2017-10-25T01:38:26.239Z,0
2017-10-25T01:39:06.720Z,0
2017-10-25T01:39:47.242Z,0
2017-10-25T01:40:27.723Z,0
2017-10-25T01:41:08.192Z,0
2017-10-25T01:41:48.678Z,0
2017-10-25T01:42:29.124Z,0
2017-10-25T01:43:09.544Z,0
2017-10-25T01:43:49.993Z,0
2017-10-25T01:44:30.470Z,0
2017-10-25T01:45:10.896Z,0
2017-10-25T01:45:51.361Z,0
2017-10-25T01:46:31.823Z,0
2017-10-25T01:47:12.282Z,0
2017-10-25T01:47:52.741Z,0
2017-10-25T01:48:33.200Z,0
2017-10-25T01:49:13.675Z,0
2017-10-25T01:49:54.156Z,0
2017-10-25T01:50:34.619Z,0
2017-10-25T01:51:15.070Z,0
2017-10-25T01:51:55.589Z,0
2017-10-25T01:52:36.052Z,0
2017-10-25T01:53:16.521Z,0
2017-10-25T01:53:56.996Z,0
2017-10-25T01:54:37.430Z,0
2017-10-25T01:56:50.153Z,0
2017-10-25T01:57:30.651Z,0
2017-10-25T01:58:11.106Z,0
2017-10-25T01:58:51.560Z,0
2017-10-25T01:59:32.068Z,0
2017-10-25T02:00:12.468Z,0
2017-10-25T02:00:52.947Z,0
2017-10-25T02:01:33.419Z,0
2017-10-25T02:02:13.841Z,0
2017-10-25T02:02:54.294Z,0
2017-10-25T02:03:34.774Z,0
2017-10-25T02:04:15.231Z,0
2017-10-25T02:04:55.687Z,0
2017-10-25T02:05:36.129Z,0
2017-10-25T02:06:16.572Z,0
2017-10-25T02:06:57.067Z,0
2017-10-25T02:07:37.507Z,0
2017-10-25T02:08:17.943Z,0
2017-10-25T02:08:58.421Z,0
2017-10-25T02:09:38.912Z,0
2017-10-25T02:10:19.397Z,0
2017-10-25T02:10:59.824Z,0
2017-10-25T02:11:40.261Z,0
2017-10-25T02:12:20.728Z,0
2017-10-25T02:13:01.159Z,0
2017-10-25T02:13:41.635Z,0
2017-10-25T02:14:22.086Z,0
2017-10-25T02:15:02.520Z,0
2017-10-25T02:15:42.920Z,0
2017-10-25T02:16:23.428Z,0
2017-10-25T02:17:03.889Z,0
2017-10-25T02:17:44.363Z,0
2017-10-25T02:18:24.844Z,0
2017-10-25T02:19:05.279Z,0
2017-10-25T02:19:45.721Z,0
2017-10-25T02:20:26.221Z,0
2017-10-25T02:21:06.687Z,0
2017-10-25T02:21:47.184Z,0
2017-10-25T02:22:27.623Z,0
2017-10-25T02:23:08.140Z,0
2017-10-25T02:23:48.596Z,0
2017-10-25T02:24:29.041Z,0
2017-10-25T02:25:09.496Z,0
2017-10-25T02:25:49.943Z,0
2017-10-25T02:26:30.420Z,0
2017-10-25T02:27:10.886Z,0
2017-10-25T02:27:51.363Z,0
2017-10-25T02:28:31.810Z,0
2017-10-25T02:29:12.246Z,0
2017-10-25T02:29:52.699Z,0
2017-10-25T02:30:33.164Z,0
2017-10-25T02:31:13.630Z,0
2017-10-25T02:31:54.087Z,0
2017-10-25T02:32:34.528Z,0
2017-10-25T02:33:14.987Z,0
2017-10-25T02:33:55.410Z,0
2017-10-25T02:34:35.886Z,0
2017-10-25T02:36:33.509Z,0
2017-10-25T02:37:13.972Z,0
2017-10-25T02:37:54.401Z,0
2017-10-25T02:40:12.257Z,0
2017-10-25T02:40:52.717Z,0
2017-10-25T02:41:33.333Z,0
2017-10-25T02:44:01.329Z,0
2017-10-25T02:44:41.768Z,0
2017-10-25T02:45:22.249Z,0
2017-10-25T02:46:02.716Z,0
2017-10-25T02:46:43.154Z,0
2017-10-25T02:47:23.607Z,0
2017-10-25T02:48:04.060Z,0
2017-10-25T02:48:44.510Z,0
2017-10-25T02:49:24.963Z,0
2017-10-25T02:50:05.387Z,0
2017-10-25T02:50:45.819Z,0
2017-10-25T02:51:26.273Z,0
2017-10-25T02:52:06.735Z,0
2017-10-25T02:52:47.172Z,0
2017-10-25T02:53:27.741Z,0
2017-10-25T02:54:08.206Z,0
2017-10-25T02:56:20.954Z,0
2017-10-25T02:57:01.411Z,0
2017-10-25T02:57:41.834Z,0
2017-10-25T02:58:22.279Z,0
2017-10-25T02:59:02.728Z,0
2017-10-25T02:59:43.160Z,0
2017-10-25T03:00:23.666Z,0
2017-10-25T03:01:04.157Z,0
2017-10-25T03:01:44.629Z,0
2017-10-25T03:02:25.074Z,0
2017-10-25T03:03:05.543Z,0
2017-10-25T03:03:46.029Z,0
2017-10-25T03:04:26.575Z,0
2017-10-25T03:05:07.956Z,0
2017-10-25T03:05:48.423Z,0
2017-10-25T03:06:28.856Z,0
2017-10-25T03:07:09.315Z,0
2017-10-25T03:07:49.764Z,0
2017-10-25T03:08:30.313Z,0
2017-10-25T03:10:58.278Z,0
2017-10-25T03:11:38.756Z,0
2017-10-25T03:12:19.225Z,0
2017-10-25T03:12:59.663Z,0
2017-10-25T03:13:40.135Z,0
2017-10-25T03:14:20.561Z,0
2017-10-25T03:15:01.047Z,0
2017-10-25T03:15:41.541Z,0
2017-10-25T03:16:21.957Z,0
2017-10-25T03:17:02.428Z,0
2017-10-25T03:17:42.834Z,0
2017-10-25T03:18:23.284Z,0
2017-10-25T03:19:07.052Z,0
2017-10-25T03:19:48.191Z,0
2017-10-25T03:20:28.672Z,0
2017-10-25T03:21:09.165Z,0
2017-10-25T03:21:49.653Z,0
2017-10-25T03:22:30.080Z,0
2017-10-25T03:23:10.525Z,0
2017-10-25T03:23:50.997Z,0
2017-10-25T03:24:31.443Z,0
2017-10-25T03:25:11.882Z,0
2017-10-25T03:25:52.361Z,0
2017-10-25T03:26:32.776Z,0
2017-10-25T03:27:13.216Z,0
2017-10-25T03:27:53.650Z,0
2017-10-25T03:28:34.083Z,0
2017-10-25T03:29:14.538Z,0
2017-10-25T03:29:55.006Z,0
2017-10-25T03:30:35.431Z,0
2017-10-25T03:31:15.916Z,0
2017-10-25T03:31:56.344Z,0
2017-10-25T03:32:36.834Z,0
2017-10-25T03:33:17.297Z,0
2017-10-25T03:35:45.186Z,0
2017-10-25T03:36:25.646Z,0
2017-10-25T03:37:06.114Z,0
2017-10-25T03:37:46.535Z,0
2017-10-25T03:40:19.559Z,0
2017-10-25T03:41:00.080Z,0
2017-10-25T03:41:40.552Z,0
2017-10-25T03:42:21.032Z,0
2017-10-25T03:43:01.512Z,0
2017-10-25T03:43:42.019Z,0
2017-10-25T03:44:22.496Z,0
2017-10-25T03:45:02.972Z,0
2017-10-25T03:47:00.649Z,0
2017-10-25T03:47:41.094Z,0
2017-10-25T03:48:21.562Z,0
2017-10-25T03:49:01.982Z,0
2017-10-25T03:49:42.414Z,0
2017-10-25T03:50:22.887Z,0
2017-10-25T03:51:03.287Z,0
2017-10-25T03:51:43.728Z,0
2017-10-25T03:52:24.200Z,0
2017-10-25T03:54:36.918Z,0
2017-10-25T03:55:17.369Z,0
2017-10-25T03:55:57.806Z,0
2017-10-25T03:58:10.521Z,0
2017-10-25T03:58:50.946Z,0
2017-10-25T03:59:31.444Z,0
2017-10-25T04:00:11.936Z,0
2017-10-25T04:00:52.395Z,0
2017-10-25T04:01:32.879Z,0
2017-10-25T04:02:13.315Z,0
2017-10-25T04:02:53.750Z,0
2017-10-25T04:03:34.230Z,0
2017-10-25T04:04:14.684Z,0
2017-10-25T04:04:55.143Z,0
2017-10-25T04:05:35.570Z,0
2017-10-25T04:06:16.029Z,0
2017-10-25T04:06:56.526Z,0
2017-10-25T04:07:36.982Z,0
2017-10-25T04:08:17.394Z,0
2017-10-25T04:08:57.855Z,0
2017-10-25T04:09:38.320Z,0
2017-10-25T04:10:18.810Z,0
2017-10-25T04:10:59.280Z,0
2017-10-25T04:11:39.732Z,0
2017-10-25T04:12:20.155Z,0
2017-10-25T04:13:00.586Z,0
2017-10-25T04:13:41.053Z,0
2017-10-25T04:14:21.541Z,0
2017-10-25T04:15:01.951Z,0
2017-10-25T04:15:42.414Z,0
2017-10-25T04:16:22.885Z,0
2017-10-25T04:17:03.351Z,0
2017-10-25T04:17:43.851Z,0
2017-10-25T04:18:24.275Z,0
2017-10-25T04:19:04.750Z,0
2017-10-25T04:19:45.170Z,0
2017-10-25T04:20:25.609Z,0
2017-10-25T04:21:06.088Z,0
2017-10-25T04:21:46.509Z,0
2017-10-25T04:22:26.986Z,0
2017-10-25T04:23:07.456Z,0
2017-10-25T04:23:47.931Z,0
2017-10-25T04:24:28.419Z,0
2017-10-25T04:25:08.925Z,0
2017-10-25T04:25:49.398Z,0
2017-10-25T04:26:29.854Z,0
2017-10-25T04:27:10.331Z,0
2017-10-25T04:27:50.806Z,0
2017-10-25T04:28:31.205Z,0
2017-10-25T04:29:11.645Z,0
2017-10-25T04:29:52.137Z,0
2017-10-25T04:30:32.564Z,0
2017-10-25T04:31:13.043Z,0
2017-10-25T04:31:53.484Z,0
2017-10-25T04:32:33.920Z,0
2017-10-25T04:33:14.379Z,0
2017-10-25T04:33:54.818Z,0
2017-10-25T04:34:35.318Z,0
2017-10-25T04:35:15.719Z,0
2017-10-25T04:35:56.209Z,0
2017-10-25T04:36:36.691Z,0
2017-10-25T04:37:17.131Z,0
2017-10-25T04:37:57.610Z,0
2017-10-25T04:38:38.046Z,0
2017-10-25T04:41:05.959Z,0
2017-10-25T04:41:46.435Z,0
2017-10-25T04:42:26.879Z,0
2017-10-25T04:43:07.322Z,0
2017-10-25T04:43:47.748Z,0
2017-10-25T04:44:28.223Z,0
2017-10-25T04:45:08.660Z,0
2017-10-25T04:45:49.096Z,0
2017-10-25T04:46:29.551Z,0
2017-10-25T04:47:09.996Z,0
2017-10-25T04:47:50.440Z,0
2017-10-25T04:48:30.913Z,0
2017-10-25T04:49:11.387Z,0
2017-10-25T04:49:51.835Z,0
2017-10-25T04:50:32.283Z,0
2017-10-25T04:52:50.147Z,0
2017-10-25T04:53:30.551Z,0
2017-10-25T04:54:11.045Z,0
2017-10-25T04:54:51.553Z,0
2017-10-25T04:55:32.037Z,0
2017-10-25T04:56:12.502Z,0
2017-10-25T04:56:52.998Z,0
2017-10-25T04:57:33.503Z,0
2017-10-25T04:58:14.004Z,0
2017-10-25T04:58:54.493Z,0
2017-10-25T04:59:34.963Z,0
2017-10-25T05:00:15.453Z,0
2017-10-25T05:00:55.928Z,0
2017-10-25T05:01:36.512Z,0
2017-10-25T05:02:16.934Z,0
2017-10-25T05:02:57.408Z,0
2017-10-25T05:03:37.909Z,0
2017-10-25T05:04:18.407Z,0
2017-10-25T05:04:58.865Z,0
2017-10-25T05:05:39.361Z,0
2017-10-25T05:06:19.862Z,0
2017-10-25T05:07:00.339Z,0
2017-10-25T05:07:40.836Z,0
2017-10-25T05:08:21.326Z,0
2017-10-25T05:09:01.805Z,0
2017-10-25T05:09:42.299Z,0
2017-10-25T05:10:22.807Z,0
2017-10-25T05:11:03.284Z,0
2017-10-25T05:11:43.774Z,0
2017-10-25T05:12:24.266Z,0
2017-10-25T05:13:04.749Z,0
2017-10-25T05:13:45.243Z,0
2017-10-25T05:14:25.754Z,0
2017-10-25T05:15:06.223Z,0
2017-10-25T05:15:46.723Z,0
2017-10-25T05:16:27.208Z,0
2017-10-25T05:17:07.684Z,0
2017-10-25T05:17:48.177Z,0
2017-10-25T05:18:28.704Z,0
2017-10-25T05:19:09.179Z,0
2017-10-25T05:19:49.653Z,0
2017-10-25T05:20:30.130Z,0
2017-10-25T05:21:10.626Z,0
2017-10-25T05:21:51.128Z,0
2017-10-25T05:22:31.615Z,0
2017-10-25T05:23:12.088Z,0
2017-10-25T05:23:53.587Z,0
2017-10-25T05:24:34.076Z,0
2017-10-25T05:25:14.555Z,0
2017-10-25T05:25:55.014Z,0
2017-10-25T05:26:35.488Z,0
2017-10-25T05:27:15.914Z,0
2017-10-25T05:29:33.829Z,0
2017-10-25T05:30:14.323Z,0
2017-10-25T05:30:54.775Z,0
2017-10-25T05:31:35.204Z,0
2017-10-25T05:32:15.735Z,0
2017-10-25T05:32:56.143Z,0
2017-10-25T05:33:36.606Z,0
2017-10-25T05:34:17.084Z,0
2017-10-25T05:34:57.612Z,4
2017-10-25T05:35:38.058Z,4
2017-10-25T05:36:18.527Z,4
2017-10-25T05:36:59.045Z,4
2017-10-25T05:37:39.570Z,0
2017-10-25T05:38:20.017Z,4
2017-10-25T05:39:00.445Z,4
2017-10-25T05:39:40.993Z,4
2017-10-25T05:40:21.394Z,8
2017-10-25T05:41:02.147Z,4
2017-10-25T05:41:42.643Z,8
2017-10-25T05:42:23.172Z,12
2017-10-25T05:43:03.642Z,8
2017-10-25T05:43:44.114Z,12
2017-10-25T05:44:24.549Z,12
2017-10-25T05:45:05.024Z,12
2017-10-25T05:45:45.517Z,16
2017-10-25T05:46:26.003Z,16
2017-10-25T05:47:06.453Z,20
2017-10-25T05:47:47.046Z,20
2017-10-25T05:48:27.557Z,24
2017-10-25T05:49:08.013Z,28
2017-10-25T05:49:48.519Z,28
2017-10-25T05:50:28.965Z,32
2017-10-25T05:51:09.488Z,32
2017-10-25T05:51:50.057Z,40
2017-10-25T05:52:30.532Z,44
2017-10-25T05:53:10.987Z,44
2017-10-25T05:53:51.467Z,48
2017-10-25T05:54:31.930Z,52
2017-10-25T05:55:12.378Z,56
2017-10-25T05:55:52.887Z,60
2017-10-25T05:56:33.341Z,64
2017-10-25T05:57:13.941Z,68
2017-10-25T05:57:54.433Z,72
2017-10-25T05:58:34.940Z,76
2017-10-25T06:01:08.085Z,84
2017-10-25T06:01:48.554Z,88
2017-10-25T06:02:29.034Z,88
2017-10-25T06:03:09.480Z,92
2017-10-25T06:03:49.874Z,96
2017-10-25T06:04:30.311Z,100
2017-10-25T06:05:10.825Z,104
2017-10-25T06:05:51.290Z,108
2017-10-25T06:08:19.208Z,124
2017-10-25T06:08:59.691Z,124
2017-10-25T06:09:40.192Z,132
2017-10-25T06:10:20.739Z,132
2017-10-25T06:11:01.203Z,136
2017-10-25T06:11:41.694Z,144
2017-10-25T06:12:22.218Z,148
2017-10-25T06:13:02.650Z,156
2017-10-25T06:13:43.125Z,164
2017-10-25T06:14:24.403Z,172
2017-10-25T06:15:04.881Z,188
2017-10-25T06:15:45.370Z,200
2017-10-25T06:16:25.880Z,212
2017-10-25T06:17:06.346Z,224
2017-10-25T06:17:46.797Z,240
2017-10-25T06:18:27.256Z,256
2017-10-25T06:20:55.272Z,320
2017-10-25T06:21:35.663Z,340
2017-10-25T06:22:16.185Z,360
2017-10-25T06:22:56.690Z,380
2017-10-25T06:23:37.145Z,404
2017-10-25T06:24:17.688Z,432
2017-10-25T06:24:58.172Z,464
2017-10-25T06:25:38.607Z,492
2017-10-25T06:26:19.079Z,528
2017-10-25T06:26:59.500Z,568
2017-10-25T06:27:39.974Z,608
2017-10-25T06:28:21.409Z,656
2017-10-25T06:29:01.829Z,700
2017-10-25T06:29:42.302Z,748
2017-10-25T06:30:22.775Z,792
2017-10-25T06:31:03.278Z,840
2017-10-25T06:31:43.772Z,884
2017-10-25T06:32:24.355Z,928
2017-10-25T06:34:57.328Z,1104
2017-10-25T06:35:37.806Z,1152
2017-10-25T06:36:18.328Z,1196
2017-10-25T06:36:58.799Z,1252
2017-10-25T06:37:39.327Z,1300
2017-10-25T06:38:19.760Z,1356
2017-10-25T06:40:48.103Z,1524
2017-10-25T06:41:28.614Z,1572
2017-10-25T06:42:09.067Z,1620
2017-10-25T06:42:49.537Z,1668
2017-10-25T06:43:29.996Z,1716
2017-10-25T06:44:10.633Z,1764
2017-10-25T06:46:43.672Z,2004
2017-10-25T06:47:24.147Z,2076
2017-10-25T06:48:04.647Z,2144
2017-10-25T06:48:45.044Z,2224
2017-10-25T06:49:25.501Z,2312
2017-10-25T06:51:23.182Z,2564
2017-10-25T06:53:56.169Z,2916
2017-10-25T06:54:36.707Z,3012
2017-10-25T06:55:17.134Z,3116
2017-10-25T06:55:57.681Z,3216
2017-10-25T06:56:38.053Z,3312
2017-10-25T06:57:18.550Z,3396
2017-10-25T06:59:31.326Z,3628
2017-10-25T07:00:11.895Z,3680
2017-10-25T07:00:52.384Z,3716
2017-10-25T07:01:32.813Z,3776
2017-10-25T07:02:13.290Z,3836
2017-10-25T07:02:53.849Z,3872
2017-10-25T07:03:34.328Z,3904
2017-10-25T07:06:02.462Z,3988
2017-10-25T07:06:42.940Z,4032
2017-10-25T07:07:23.451Z,4052
2017-10-25T07:08:04.443Z,4020
2017-10-25T07:08:44.889Z,3980
2017-10-25T07:09:25.323Z,3960
2017-10-25T07:10:05.773Z,3956
2017-10-25T07:10:46.284Z,3952
2017-10-25T07:11:26.767Z,3948
2017-10-25T07:12:07.295Z,3936
2017-10-25T07:12:47.816Z,3928
2017-10-25T07:13:28.279Z,3896
2017-10-25T07:14:08.745Z,3876
2017-10-25T07:14:49.168Z,3868
2017-10-25T07:15:29.614Z,3856
2017-10-25T07:16:10.123Z,3848
2017-10-25T07:16:50.619Z,3848
2017-10-25T07:19:18.572Z,3856
2017-10-25T07:19:59.235Z,3860
2017-10-25T07:20:39.528Z,3876
2017-10-25T07:21:19.985Z,3896
2017-10-25T07:22:00.454Z,3948
2017-10-25T07:22:40.998Z,4016
2017-10-25T07:23:21.437Z,4048
2017-10-25T07:24:01.910Z,4108
2017-10-25T07:25:59.588Z,4248
2017-10-25T07:26:40.100Z,4304
2017-10-25T07:27:20.500Z,4312
2017-10-25T07:28:01.098Z,4380
2017-10-25T07:28:41.555Z,4448
2017-10-25T07:29:22.017Z,4520
2017-10-25T07:30:02.433Z,4664
2017-10-25T07:30:42.900Z,4772
2017-10-25T07:31:23.327Z,4884
2017-10-25T07:32:03.849Z,5008
2017-10-25T07:34:31.804Z,5092
2017-10-25T07:35:12.279Z,5160
2017-10-25T07:35:52.791Z,5260
2017-10-25T07:36:33.286Z,5368
2017-10-25T07:37:13.723Z,5464
2017-10-25T07:37:54.177Z,5584
2017-10-25T07:38:34.727Z,5736
2017-10-25T07:39:15.184Z,5892
2017-10-25T07:39:55.643Z,6060
2017-10-25T07:40:36.124Z,6208
2017-10-25T07:41:16.568Z,6308
2017-10-25T07:41:57.022Z,6380
2017-10-25T07:42:37.521Z,6440
2017-10-25T07:43:18.065Z,6412
2017-10-25T07:43:58.523Z,6336
2017-10-25T07:46:31.536Z,5756
2017-10-25T07:47:12.069Z,5596
2017-10-25T07:47:52.578Z,5468
2017-10-25T07:48:33.127Z,5292
2017-10-25T07:49:13.588Z,5168
2017-10-25T07:51:46.606Z,4884
2017-10-25T07:52:27.094Z,4848
2017-10-25T07:53:07.566Z,4832
2017-10-25T07:53:48.085Z,4808
2017-10-25T07:54:28.651Z,4768
2017-10-25T07:55:09.136Z,4748
2017-10-25T07:55:49.621Z,4724
2017-10-25T07:56:30.153Z,4672
2017-10-25T07:57:10.697Z,4632
2017-10-25T07:57:51.179Z,4624
2017-10-25T08:00:09.142Z,4880
2017-10-25T08:00:49.512Z,5020
2017-10-25T08:01:30.029Z,5172
2017-10-25T08:02:11.146Z,5316
2017-10-25T08:02:51.542Z,5432
2017-10-25T08:03:31.989Z,5528
2017-10-25T08:04:12.441Z,5728
2017-10-25T08:04:52.934Z,5880
2017-10-25T08:05:33.525Z,5996
2017-10-25T08:06:14.074Z,6088
2017-10-25T08:06:54.529Z,6168
2017-10-25T08:07:35.138Z,6208
2017-10-25T08:08:15.647Z,6232
2017-10-25T08:08:56.065Z,6192
2017-10-25T08:09:36.574Z,6148
2017-10-25T08:10:17.018Z,6176
2017-10-25T08:10:57.484Z,6240
2017-10-25T08:11:37.952Z,6312
2017-10-25T08:12:18.468Z,6364
2017-10-25T08:12:58.974Z,6428
2017-10-25T08:13:39.475Z,6500
2017-10-25T08:15:57.346Z,6724
2017-10-25T08:16:37.860Z,6792
2017-10-25T08:18:50.661Z,6996
2017-10-25T08:19:31.094Z,7060
2017-10-25T08:20:11.564Z,7136
2017-10-25T08:20:52.107Z,7204
2017-10-25T08:21:32.788Z,7276
2017-10-25T08:22:13.090Z,7324
2017-10-25T08:22:53.579Z,7336
2017-10-25T08:23:34.074Z,7360
2017-10-25T08:24:14.523Z,7388
2017-10-25T08:24:55.005Z,7404
2017-10-25T08:25:35.535Z,7464
2017-10-25T08:26:16.050Z,7544
2017-10-25T08:28:33.976Z,7496
2017-10-25T08:29:14.493Z,7448
2017-10-25T08:29:54.962Z,7396
2017-10-25T08:30:36.071Z,7356
2017-10-25T08:31:16.628Z,7312
2017-10-25T08:31:57.069Z,7208
2017-10-25T08:33:55.555Z,6924
2017-10-25T08:34:35.982Z,6824
2017-10-25T08:35:16.558Z,6724
2017-10-25T08:35:57.076Z,6612
2017-10-25T08:36:37.629Z,6488
2017-10-25T08:37:18.266Z,6400
2017-10-25T08:37:58.703Z,6332
2017-10-25T08:38:39.276Z,6304
2017-10-25T08:40:57.165Z,6372
2017-10-25T08:41:37.628Z,6420
2017-10-25T08:42:18.093Z,6528
2017-10-25T08:42:58.603Z,6632
2017-10-25T08:43:39.102Z,6788
2017-10-25T08:44:19.566Z,6924
2017-10-25T08:45:00.114Z,7104
2017-10-25T08:45:40.683Z,7248
2017-10-25T08:46:21.150Z,7680
2017-10-25T08:47:01.616Z,8068
2017-10-25T08:47:42.092Z,8544
2017-10-25T08:48:22.557Z,9224
2017-10-25T08:50:40.454Z,9748
2017-10-25T08:51:20.986Z,9616
2017-10-25T08:52:01.533Z,8976
2017-10-25T08:54:14.472Z,9216
2017-10-25T08:54:54.997Z,9700
2017-10-25T08:55:35.495Z,9740
2017-10-25T08:56:15.949Z,9756
2017-10-25T08:56:56.406Z,9900
2017-10-25T08:57:36.855Z,9608
2017-10-25T08:59:54.693Z,9864
2017-10-25T09:00:35.191Z,10088
2017-10-25T09:01:15.766Z,10280
2017-10-25T09:01:56.195Z,10448
2017-10-25T09:03:53.826Z,10352
2017-10-25T09:04:34.339Z,10488
2017-10-25T09:05:14.792Z,10756
2017-10-25T09:07:42.738Z,10816
2017-10-25T09:08:23.202Z,10652
2017-10-25T09:09:03.667Z,10516
2017-10-25T09:09:44.154Z,10356
2017-10-25T09:10:24.633Z,9980
2017-10-25T09:11:05.174Z,9840
2017-10-25T09:11:45.626Z,9672
2017-10-25T09:12:26.093Z,9520
2017-10-25T09:13:06.613Z,9132
2017-10-25T09:13:47.978Z,9012
2017-10-25T09:14:28.418Z,8808
2017-10-25T09:15:08.955Z,8776
2017-10-25T09:17:36.906Z,8640
2017-10-25T09:18:17.634Z,8428
2017-10-25T09:20:45.595Z,8004
2017-10-25T09:21:26.139Z,8084
2017-10-25T09:22:06.746Z,8128
2017-10-25T09:22:47.228Z,8136
2017-10-25T09:23:28.445Z,8212
2017-10-25T09:24:08.945Z,8096
2017-10-25T09:24:49.426Z,8036
2017-10-25T09:25:29.897Z,7888
2017-10-25T09:26:10.360Z,7812
2017-10-25T09:26:50.899Z,7720
2017-10-25T09:27:31.391Z,7772
2017-10-25T09:28:11.797Z,7776
2017-10-25T09:28:52.309Z,7840
2017-10-25T09:29:32.737Z,7880
2017-10-25T09:30:13.237Z,8192
2017-10-25T09:30:53.750Z,7980
2017-10-25T09:31:34.210Z,7860
2017-10-25T09:32:14.765Z,8152
2017-10-25T09:32:55.225Z,8488
2017-10-25T09:33:35.701Z,8924
2017-10-25T09:34:16.185Z,8468
2017-10-25T09:34:56.694Z,8396
2017-10-25T09:35:37.195Z,8792
2017-10-25T09:36:18.653Z,8228
2017-10-25T09:38:51.851Z,6972
2017-10-25T09:39:32.256Z,7384
2017-10-25T09:40:12.812Z,6708
2017-10-25T09:40:53.277Z,5900
2017-10-25T09:41:33.689Z,5836
2017-10-25T09:44:01.707Z,6012
2017-10-25T09:46:30.391Z,5580
2017-10-25T09:47:10.869Z,5560
2017-10-25T09:47:51.345Z,5564
2017-10-25T09:48:31.849Z,5324
2017-10-25T09:49:12.345Z,5140
2017-10-25T09:49:52.862Z,5228
2017-10-25T09:50:33.318Z,5540
2017-10-25T09:51:13.768Z,5392
2017-10-25T09:53:31.634Z,5416
2017-10-25T09:54:12.052Z,5360
2017-10-25T09:54:52.490Z,5304
2017-10-25T09:55:32.971Z,5220
2017-10-25T09:56:13.440Z,5116
2017-10-25T09:56:53.940Z,5064
2017-10-25T09:57:34.395Z,5072
2017-10-25T09:58:15.219Z,5224
2017-10-25T09:58:55.688Z,5344
2017-10-25T09:59:39.756Z,5408
2017-10-25T10:00:21.898Z,5512
2017-10-25T10:01:02.422Z,5528
2017-10-25T10:01:42.870Z,5664
2017-10-25T10:02:23.313Z,5836
2017-10-25T10:04:20.976Z,6416
2017-10-25T10:05:01.481Z,6324
2017-10-25T10:05:41.915Z,6892
2017-10-25T10:06:22.399Z,7180
2017-10-25T10:07:02.854Z,7428
2017-10-25T10:07:43.330Z,7916
2017-10-25T10:08:23.839Z,8180
2017-10-25T10:09:04.303Z,8284
2017-10-25T10:11:22.174Z,7268
2017-10-25T10:12:02.638Z,6808
2017-10-25T10:12:43.228Z,6204
2017-10-25T10:13:23.628Z,6216
2017-10-25T10:14:04.104Z,5548
2017-10-25T10:14:44.559Z,5112
2017-10-25T10:15:24.993Z,5540
2017-10-25T10:16:05.440Z,5612
2017-10-25T10:16:46.541Z,5776
2017-10-25T10:17:27.521Z,5644
2017-10-25T10:18:08.017Z,5300
2017-10-25T10:18:48.337Z,5132
2017-10-25T10:19:28.826Z,4848
2017-10-25T10:20:09.298Z,4604
2017-10-25T10:20:49.769Z,5260
2017-10-25T10:21:30.247Z,5420
2017-10-25T10:22:10.821Z,6052
2017-10-25T10:22:51.297Z,5328
2017-10-25T10:23:31.728Z,5468
2017-10-25T10:24:12.246Z,5664
2017-10-25T10:24:52.719Z,6736
2017-10-25T10:25:33.223Z,7020
2017-10-25T10:26:13.695Z,7124
2017-10-25T10:26:54.121Z,6800
2017-10-25T10:27:34.583Z,7620
2017-10-25T10:28:15.055Z,8120
2017-10-25T10:28:55.506Z,7668
2017-10-25T10:29:35.974Z,6820
2017-10-25T10:30:16.582Z,6432
2017-10-25T10:30:57.896Z,5856
2017-10-25T10:31:38.851Z,5468
2017-10-25T10:32:20.954Z,5060
2017-10-25T10:33:01.543Z,4848
2017-10-25T10:33:42.566Z,4752
2017-10-25T10:34:23.352Z,4404
2017-10-25T10:35:03.798Z,4680
2017-10-25T10:35:44.249Z,4896
2017-10-25T10:36:24.760Z,5060
2017-10-25T10:37:05.406Z,4852
2017-10-25T10:37:45.722Z,4816
2017-10-25T10:38:26.144Z,4744
2017-10-25T10:39:06.661Z,4880
2017-10-25T10:39:47.092Z,5084
2017-10-25T10:40:27.610Z,5204
2017-10-25T10:41:08.594Z,4692
2017-10-25T10:41:49.072Z,3664
2017-10-25T10:42:29.525Z,3808
2017-10-25T10:43:10.018Z,3980
2017-10-25T10:43:50.511Z,5124
2017-10-25T10:44:30.999Z,5188
2017-10-25T10:45:11.656Z,5100
2017-10-25T10:45:52.054Z,5088
2017-10-25T10:46:33.465Z,5116
2017-10-25T10:47:13.901Z,5120
2017-10-25T10:47:54.416Z,5144
2017-10-25T10:48:36.996Z,5188
2017-10-25T10:49:19.735Z,5212
2017-10-25T10:49:59.790Z,5228
2017-10-25T10:50:40.157Z,5184
2017-10-25T10:51:20.760Z,5092
2017-10-25T10:52:02.415Z,5040
2017-10-25T10:52:42.828Z,5088
2017-10-25T10:53:23.887Z,5216
2017-10-25T10:54:04.314Z,5264
2017-10-25T10:54:44.729Z,5388
2017-10-25T10:55:25.331Z,5476
2017-10-25T10:56:05.804Z,5284
2017-10-25T10:56:47.055Z,5216
2017-10-25T10:57:27.352Z,5240
2017-10-25T10:58:07.836Z,5236
2017-10-25T10:58:48.300Z,5428
2017-10-25T10:59:28.888Z,5544
2017-10-25T11:00:09.170Z,5420
2017-10-25T11:00:49.609Z,5356
2017-10-25T11:01:30.061Z,5300
2017-10-25T11:03:58.160Z,5728
2017-10-25T11:04:38.771Z,6300
2017-10-25T11:05:19.235Z,6396
2017-10-25T11:05:59.799Z,6040
2017-10-25T11:06:40.271Z,5836
2017-10-25T11:07:20.731Z,5548
2017-10-25T11:08:01.234Z,5572